Meteo Giornale » Osservazioni meteo Francia » Parigi-Orly

ore: 16:30 - Osservazioni Meteo Parigi-Orly
Lat. 48° 44' N Lon. 2° 24' E Alt. 89 metri s.l.m.

sereno Europe/Paris

4 °C

Sereno

Temp. 24 Ore

-6 °C

5 °C

Nord/Nord-Est

9.3 Km/h

Dew point -5 °C

Umidità 51 %

Visibilità  10 Km

Il sole sorge alle ore 08:29

Il sole tramonta alle ore 17:34

Data e Ora Cielo e Fenomeni T °C DP °C Um. % Pres. hPa Vis. km Vento km/h
Oggi h: 16:30 sereno Sereno 4 -5 51 1025 10 N/NE 9.3
Oggi h: 16:00 sereno Sereno 5 -5 48 1025 10 N/NE 11.1
Oggi h: 15:30 sereno Sereno 5 -5 48 1025 10 N/NE 11.1
Oggi h: 15:00 sereno Sereno 5 -6 44 1025 10 N/NE 13
Oggi h: 14:30 sereno Sereno 5 -6 44 1025 10 N/NE 13
Oggi h: 14:00 sereno Sereno 5 -6 44 1025 10 N/NE 11.1
Oggi h: 13:30 sereno Sereno 5 -5 48 1025 10 N/NE 9.3
Oggi h: 13:00 sereno Sereno 4 -5 51 1025 10 N 11.1
Oggi h: 12:30 sereno Sereno 3 -5 55 1026 9 N 5.5
Oggi h: 12:00 sereno Sereno 2 -4 64 1026 9 N/NE 7.4
Oggi h: 11:30 sereno Sereno 1 -4 69 1026 9 N 7.4
Oggi h: 11:00 sereno Sereno -0 -4 74 1026 9 N 5.5
Oggi h: 10:30 sereno Sereno -1 -4 80 1026 8 N 1.8
Oggi h: 10:00 sereno Sereno -2 -3 92 1026 8 N 5.5
Oggi h: 09:30 sereno Sereno -4 -6 85 1026 7 N 7.4
Oggi h: 09:00 foschia Foschia -4 -6 85 1026 4 N 1.8
Oggi h: 08:30 foschia Foschia -5 -7 85 1026 4 N 5.5
Oggi h: 08:00 sereno Sereno -4 -6 85 1026 6 N 1.8
Oggi h: 07:30 sereno Sereno -5 -8 79 1026 6 N 0
Oggi h: 07:00 sereno Sereno -5 -6 92 1025 6 N 1.8
Oggi h: 06:30 sereno Sereno -6 -8 85 1025 6 N 3.7
Oggi h: 06:00 sereno Sereno -4 -6 85 1025 6 N 0
Oggi h: 05:30 sereno Sereno -4 -5 92 1025 6 N 3.7
Oggi h: 05:00 sereno Sereno -5 -7 85 1025 6 N 3.7
Oggi h: 04:30 foschia Foschia -3 -5 86 1025 5 N 0
Oggi h: 04:00 foschia Foschia -6 -7 92 1025 5 N 0
Oggi h: 03:30 sereno Sereno -5 -7 85 1026 6 N 1.8
Oggi h: 03:00 sereno Sereno -5 -7 85 1026 6 N 5.5
Oggi h: 02:30 sereno Sereno -4 -5 92 1026 6 N 1.8
Oggi h: 02:00 sereno Sereno -5 -6 92 1026 7 N 0
Oggi h: 01:30 sereno Sereno -5 -6 92 1026 7 N 0
Oggi h: 01:00 sereno Sereno -5 -7 85 1026 7 N 5.5
Oggi h: 00:30 sereno Sereno -5 -7 85 1027 6 N 0
Oggi h: 00:00 sereno Sereno -5 -7 85 1027 6 N 0
Ieri h: 23:30 sereno Sereno -5 -7 85 1026 6 N 1.8
Ieri h: 23:00 sereno Sereno -4 -6 85 1026 6 N 3.7
Ieri h: 22:30 sereno Sereno -3 -6 79 1026 6 N 0
Ieri h: 22:00 sereno Sereno -3 -5 86 1026 6 N 0
Ieri h: 21:30 sereno Sereno -3 -5 86 1026 6 N 3.7
Ieri h: 21:00 sereno Sereno -3 -5 86 1026 6 N 3.7
Ieri h: 20:30 sereno Sereno -2 -4 86 1026 6 N 3.7
Ieri h: 20:00 sereno Sereno -3 -5 86 1026 6 N 0
Ieri h: 19:30 sereno Sereno -2 -4 86 1026 6 N 3.7
Ieri h: 19:00 sereno Sereno -2 -5 79 1026 6 N 0
Ieri h: 18:30 sereno Sereno -2 -5 79 1026 6 N 5.5
Ieri h: 18:00 sereno Sereno -0 -5 68 1026 6 N 5.5
Ieri h: 17:30 sereno Sereno 1 -4 69 1026 7 N 0
Ieri h: 17:00 sereno Sereno 2 -4 64 1026 8 N 0